Time;durP1;ratioP1;P1;durP2;ratioP2;P2;SDS_P1;SDS_P2;PMS_P1;PMS_P2;Temp;Humidity;BMP_temperature;BMP_pressure;BME280_temperature;BME280_humidity;BME280_pressure;Samples;Min_cycle;Max_cycle;Signal;HPM_P1;HPM_P2
2023/03/30 00:00:58;;;;;;;12.10;2.17;;;15.30;99.90;;;;;;5029916;28;20410;-67
2023/03/30 00:03:26;;;;;;;11.48;2.00;;;15.30;99.90;;;;;;5029805;28;20383;-66
2023/03/30 00:05:55;;;;;;;8.10;1.70;;;15.40;99.90;;;;;;5029893;28;20413;-66
2023/03/30 00:08:27;;;;;;;7.85;1.58;;;15.30;99.90;;;;;;5029113;28;20506;-67
2023/03/30 00:10:59;;;;;;;10.40;1.88;;;15.40;99.90;;;;;;5030087;28;20910;-66
2023/03/30 00:13:26;;;;;;;8.48;1.70;;;15.40;99.90;;;;;;5029429;28;20382;-66
2023/03/30 00:15:51;;;;;;;9.60;1.80;;;15.50;99.90;;;;;;5029687;28;20445;-67
2023/03/30 00:18:17;;;;;;;11.00;1.90;;;15.50;99.90;;;;;;5029375;28;20469;-67
2023/03/30 00:20:43;;;;;;;8.13;2.10;;;15.50;99.90;;;;;;5030117;28;20383;-67
2023/03/30 00:23:09;;;;;;;10.25;1.90;;;15.60;99.90;;;;;;5029150;28;20391;-66
2023/03/30 00:25:35;;;;;;;11.77;2.75;;;15.60;99.90;;;;;;5029286;28;20422;-66
2023/03/30 00:28:01;;;;;;;7.90;1.70;;;15.50;99.90;;;;;;5030205;28;20406;-67
2023/03/30 00:30:26;;;;;;;9.80;2.20;;;15.50;99.90;;;;;;5029165;28;20485;-67
2023/03/30 00:32:52;;;;;;;10.82;2.30;;;15.50;99.90;;;;;;5029644;28;20756;-67
2023/03/30 00:35:19;;;;;;;9.87;1.70;;;15.60;99.90;;;;;;5028949;28;20399;-66
2023/03/30 00:37:48;;;;;;;8.80;1.93;;;15.60;99.90;;;;;;5049675;28;20416;-67
2023/03/30 00:40:17;;;;;;;10.30;2.37;;;15.60;99.90;;;;;;5048836;28;20389;-66
2023/03/30 00:42:43;;;;;;;9.55;2.20;;;15.60;99.90;;;;;;5049658;28;20386;-66
2023/03/30 00:45:09;;;;;;;9.07;2.17;;;15.50;99.90;;;;;;5049115;28;20516;-67
2023/03/30 00:47:40;;;;;;;10.80;1.95;;;15.50;99.90;;;;;;5049634;28;20460;-67
2023/03/30 00:50:06;;;;;;;9.38;1.67;;;15.40;99.90;;;;;;5049680;28;20426;-67
2023/03/30 00:52:36;;;;;;;9.10;1.57;;;15.30;99.90;;;;;;5048744;28;20408;-67
2023/03/30 00:55:04;;;;;;;11.60;2.20;;;15.20;99.90;;;;;;5049730;28;20397;-67
2023/03/30 00:57:32;;;;;;;10.23;1.83;;;15.10;99.90;;;;;;5048994;28;20401;-66
2023/03/30 00:59:58;;;;;;;10.75;1.63;;;15.10;99.90;;;;;;5048494;28;20428;-67
2023/03/30 01:02:24;;;;;;;13.50;2.55;;;15.10;99.90;;;;;;5030717;28;20851;-67
2023/03/30 01:04:54;;;;;;;10.07;2.10;;;15.20;99.90;;;;;;5049225;28;20413;-66
2023/03/30 01:07:23;;;;;;;9.90;1.97;;;15.30;99.90;;;;;;5048707;28;20385;-66
2023/03/30 01:09:50;;;;;;;13.10;1.93;;;15.40;99.90;;;;;;5048993;28;20426;-67
2023/03/30 01:12:16;;;;;;;7.50;2.00;;;15.30;99.90;;;;;;5048759;28;20382;-66
2023/03/30 01:14:41;;;;;;;9.70;2.30;;;15.20;99.90;;;;;;5049455;28;20461;-67
2023/03/30 01:17:19;;;;;;;8.87;2.00;;;15.10;99.90;;;;;;5048973;28;20735;-61
2023/03/30 01:20:13;;;;;;;7.95;1.85;;;14.90;99.90;;;;;;5049296;28;20983;-67
2023/03/30 01:22:54;;;;;;;7.22;1.73;;;14.90;99.90;;;;;;5048996;28;20397;-67
2023/03/30 01:25:47;;;;;;;8.98;2.20;;;15.00;99.90;;;;;;5048450;28;20413;-67
2023/03/30 01:28:24;;;;;;;9.70;1.80;;;15.10;99.90;;;;;;5048564;28;20434;-67
2023/03/30 01:31:29;;;;;;;12.45;1.75;;;15.10;99.90;;;;;;5049180;28;20395;-67
2023/03/30 01:34:06;;;;;;;7.75;2.00;;;15.10;99.90;;;;;;5049210;28;20476;-68
2023/03/30 01:36:52;;;;;;;10.32;1.73;;;14.90;99.90;;;;;;5048641;28;20898;-67
2023/03/30 01:39:40;;;;;;;7.93;1.80;;;14.90;99.90;;;;;;5048575;28;20408;-67
2023/03/30 01:42:12;;;;;;;14.55;2.10;;;14.90;99.90;;;;;;5048977;28;20392;-69
2023/03/30 01:45:02;;;;;;;8.80;1.92;;;14.90;99.90;;;;;;5048989;28;20454;-67
2023/03/30 01:47:28;;;;;;;9.80;1.90;;;14.90;99.90;;;;;;5050951;28;20548;-66
2023/03/30 01:50:00;;;;;;;9.65;2.05;;;15.00;99.90;;;;;;5052348;28;20902;-66
2023/03/30 01:52:39;;;;;;;11.52;2.35;;;15.10;99.90;;;;;;5052184;28;20430;-66
2023/03/30 01:55:13;;;;;;;10.27;2.60;;;15.00;99.90;;;;;;5052239;28;20418;-66
2023/03/30 01:57:46;;;;;;;8.40;2.20;;;14.90;99.90;;;;;;5052356;28;20451;-67
2023/03/30 02:00:20;;;;;;;11.18;1.83;;;14.90;99.90;;;;;;5051278;28;20438;-62
2023/03/30 02:02:55;;;;;;;9.32;1.92;;;14.90;99.90;;;;;;5052600;28;20474;-67
2023/03/30 02:05:23;;;;;;;10.20;2.10;;;15.00;99.90;;;;;;5051333;28;20871;-67
2023/03/30 02:07:52;;;;;;;11.52;1.88;;;14.90;1.00;;;;;;5052621;28;20396;-67
2023/03/30 02:10:22;;;;;;;10.97;2.20;;;15.00;1.00;;;;;;5051880;28;20390;-67
2023/03/30 02:12:49;;;;;;;12.65;2.20;;;14.80;1.00;;;;;;5052096;28;20413;-67
2023/03/30 02:15:16;;;;;;;10.95;1.70;;;14.80;1.00;;;;;;5051287;28;20393;-66
2023/03/30 02:17:44;;;;;;;10.18;2.13;;;14.90;1.00;;;;;;5052104;28;20466;-67
2023/03/30 02:20:11;;;;;;;14.55;2.75;;;14.90;1.00;;;;;;5051599;28;20389;-60
2023/03/30 02:22:37;;;;;;;9.32;1.40;;;14.90;1.00;;;;;;5051845;28;21097;-67
2023/03/30 02:25:05;;;;;;;7.85;2.13;;;14.90;1.00;;;;;;5052009;28;20416;-67
2023/03/30 02:27:32;;;;;;;8.25;2.00;;;14.80;1.00;;;;;;5050910;28;20587;-66
2023/03/30 02:29:58;;;;;;;9.45;1.85;;;14.60;1.00;;;;;;5051524;28;20412;-67
2023/03/30 02:32:27;;;;;;;12.67;1.97;;;14.50;1.00;;;;;;5043362;28;20401;-67
2023/03/30 02:35:23;;;;;;;11.95;2.30;;;14.50;1.00;;;;;;5031996;28;20441;-66
2023/03/30 02:38:12;;;;;;;8.40;1.70;;;14.50;1.00;;;;;;5016614;28;20748;-67
2023/03/30 02:40:54;;;;;;;10.00;2.10;;;14.30;53.50;;;;;;5031836;28;20468;-67
2023/03/30 02:43:55;;;;;;;10.00;1.93;;;14.30;99.90;;;;;;5031541;28;20436;-66
2023/03/30 02:46:24;;;;;;;9.75;2.00;;;14.30;99.90;;;;;;4997282;28;20467;-67
2023/03/30 02:49:17;;;;;;;15.15;2.30;;;14.30;99.90;;;;;;5031608;28;20390;-66
2023/03/30 02:52:06;;;;;;;11.07;2.08;;;14.30;99.90;;;;;;5031518;28;20387;-66
2023/03/30 02:54:58;;;;;;;8.52;2.00;;;14.40;99.90;;;;;;5030972;28;20415;-66
2023/03/30 02:57:47;;;;;;;9.00;1.60;;;14.50;99.90;;;;;;5031013;28;20418;-66
2023/03/30 03:00:26;;;;;;;11.70;2.17;;;14.40;1.00;;;;;;5030567;28;20426;-65
2023/03/30 03:02:56;;;;;;;8.73;1.87;;;14.40;1.00;;;;;;5031362;28;20478;-67
2023/03/30 03:05:24;;;;;;;8.80;1.90;;;14.30;1.00;;;;;;5030654;28;20907;-67
2023/03/30 03:07:50;;;;;;;11.63;2.13;;;14.40;1.00;;;;;;5031226;28;20390;-67
2023/03/30 03:10:16;;;;;;;9.95;2.63;;;14.50;99.90;;;;;;5030329;28;20395;-67
2023/03/30 03:12:43;;;;;;;10.93;2.50;;;14.50;99.90;;;;;;5031238;28;20375;-66
2023/03/30 03:15:10;;;;;;;22.33;2.85;;;14.40;1.00;;;;;;5031119;28;20395;-62
2023/03/30 03:17:35;;;;;;;12.68;2.10;;;14.40;42.50;;;;;;5030700;28;20375;-67
2023/03/30 03:20:03;;;;;;;9.40;2.30;;;14.30;1.00;;;;;;5031314;28;20437;-67
2023/03/30 03:22:29;;;;;;;11.70;2.10;;;14.30;1.00;;;;;;5029809;28;20401;-67
2023/03/30 03:24:55;;;;;;;9.60;2.10;;;14.40;99.90;;;;;;5030636;28;20414;-67
2023/03/30 03:27:20;;;;;;;14.07;2.35;;;14.50;99.90;;;;;;5030087;28;20417;-68
2023/03/30 03:29:46;;;;;;;11.23;2.30;;;14.30;1.00;;;;;;5030447;28;20485;-66
2023/03/30 03:32:12;;;;;;;10.90;2.45;;;14.20;1.00;;;;;;5037661;28;20453;-62
2023/03/30 03:34:38;;;;;;;13.10;2.43;;;14.10;1.00;;;;;;5050321;28;20397;-69
2023/03/30 03:37:04;;;;;;;7.40;1.80;;;14.10;1.00;;;;;;5050764;28;20381;-67
2023/03/30 03:39:30;;;;;;;13.73;2.33;;;14.20;1.00;;;;;;5049989;28;20739;-67
2023/03/30 03:41:56;;;;;;;12.70;2.40;;;14.20;99.90;;;;;;5048935;28;20866;-66
2023/03/30 03:44:21;;;;;;;9.27;2.25;;;14.10;1.00;;;;;;5049154;28;20431;-66
2023/03/30 03:46:47;;;;;;;13.33;2.50;;;14.20;1.00;;;;;;5050648;28;20398;-66
2023/03/30 03:49:12;;;;;;;11.93;2.35;;;14.10;99.90;;;;;;5049949;28;20386;-60
2023/03/30 03:51:38;;;;;;;8.38;2.10;;;14.10;99.90;;;;;;5049143;28;20472;-67
2023/03/30 03:54:04;;;;;;;11.43;3.97;;;14.00;99.90;;;;;;5049994;28;20739;-67
2023/03/30 03:56:30;;;;;;;14.00;2.40;;;13.90;99.90;;;;;;5049576;28;20769;-68
2023/03/30 03:58:55;;;;;;;8.23;2.00;;;13.90;99.90;;;;;;5050255;28;20480;-66
2023/03/30 04:01:21;;;;;;;13.52;2.95;;;13.80;1.00;;;;;;5046873;28;20411;-66
2023/03/30 04:03:47;;;;;;;13.50;2.53;;;13.80;1.00;;;;;;5040500;28;20471;-67
2023/03/30 04:06:12;;;;;;;12.70;3.40;;;13.70;93.70;;;;;;5029877;28;20418;-60
2023/03/30 04:08:38;;;;;;;11.60;2.28;;;13.90;1.00;;;;;;5029466;28;20398;-67
2023/03/30 04:11:10;;;;;;;9.07;2.27;;;13.90;1.00;;;;;;5030326;28;20756;-67
2023/03/30 04:13:37;;;;;;;13.35;2.55;;;14.00;99.90;;;;;;5029339;28;20378;-67
2023/03/30 04:16:03;;;;;;;15.30;2.60;;;14.20;1.00;;;;;;5029986;28;20437;-67
2023/03/30 04:18:32;;;;;;;11.95;2.50;;;14.20;1.00;;;;;;5029604;28;20413;-67
2023/03/30 04:21:03;;;;;;;14.75;2.60;;;14.10;1.00;;;;;;5029893;28;20391;-67
2023/03/30 04:23:32;;;;;;;9.68;2.35;;;14.10;1.00;;;;;;5029245;28;20387;-67
2023/03/30 04:26:02;;;;;;;13.65;2.67;;;14.00;1.00;;;;;;5029831;28;20502;-66
2023/03/30 04:28:28;;;;;;;12.75;2.42;;;14.00;1.00;;;;;;5034040;28;20506;-64
2023/03/30 04:31:02;;;;;;;13.73;2.58;;;14.10;99.90;;;;;;5045926;28;20381;-67
2023/03/30 04:33:29;;;;;;;10.20;2.45;;;14.20;62.90;;;;;;5041384;28;20441;-67
2023/03/30 04:35:54;;;;;;;11.45;2.10;;;14.30;99.90;;;;;;5045951;28;20401;-64
2023/03/30 04:38:23;;;;;;;12.68;2.78;;;14.40;22.70;;;;;;5040961;28;20446;-65
2023/03/30 04:40:52;;;;;;;10.68;2.67;;;14.30;1.00;;;;;;5046997;28;20417;-67
2023/03/30 04:43:19;;;;;;;12.73;2.70;;;14.30;99.90;;;;;;5068683;28;20456;-66
2023/03/30 04:45:52;;;;;;;16.13;3.50;;;14.20;99.90;;;;;;5059088;28;20405;-67
2023/03/30 04:48:19;;;;;;;11.05;2.50;;;14.10;99.90;;;;;;5046200;28;20475;-67
2023/03/30 04:50:48;;;;;;;7.90;2.25;;;14.10;1.00;;;;;;5060153;28;20397;-67
2023/03/30 04:53:15;;;;;;;10.27;2.50;;;14.20;1.00;;;;;;5062651;28;20385;-61
2023/03/30 04:55:41;;;;;;;14.73;2.85;;;14.10;1.00;;;;;;5049204;28;20594;-67
2023/03/30 04:58:10;;;;;;;12.25;2.92;;;14.30;1.00;;;;;;5051643;28;20465;-67
2023/03/30 05:00:36;;;;;;;16.50;3.20;;;14.30;99.90;;;;;;5051968;28;20387;-67
2023/03/30 05:03:02;;;;;;;11.23;3.15;;;14.30;1.00;;;;;;5045494;28;20410;-66
2023/03/30 05:05:28;;;;;;;13.00;2.55;;;14.20;99.90;;;;;;5029542;28;20458;-67
2023/03/30 05:07:54;;;;;;;15.02;2.45;;;14.10;1.00;;;;;;5040910;28;20402;-67
2023/03/30 05:10:19;;;;;;;12.07;2.90;;;14.00;1.00;;;;;;5045286;28;20438;-66
2023/03/30 05:12:45;;;;;;;16.50;2.60;;;14.00;99.90;;;;;;5069039;28;20379;-67
2023/03/30 05:15:11;;;;;;;12.40;2.70;;;13.90;99.90;;;;;;5048656;28;20803;-64
2023/03/30 05:17:37;;;;;;;15.43;2.37;;;13.80;1.00;;;;;;5039816;28;20380;-67
2023/03/30 05:20:07;;;;;;;10.90;2.30;;;13.90;1.00;;;;;;5038898;28;20404;-66
2023/03/30 05:22:33;;;;;;;12.23;2.40;;;13.80;1.00;;;;;;5049951;28;20447;-66
2023/03/30 05:24:59;;;;;;;13.40;2.92;;;13.90;99.90;;;;;;5046715;28;20452;-66
2023/03/30 05:27:26;;;;;;;15.15;2.90;;;14.00;1.00;;;;;;5051942;28;20401;-66
2023/03/30 05:29:51;;;;;;;12.35;3.20;;;14.10;1.00;;;;;;5051788;28;20499;-67
2023/03/30 05:32:17;;;;;;;11.70;2.00;;;14.10;1.00;;;;;;5034179;28;20381;-66
2023/03/30 05:34:43;;;;;;;15.75;2.50;;;14.10;99.90;;;;;;5050110;28;20499;-67
2023/03/30 05:37:09;;;;;;;13.63;2.93;;;14.10;1.00;;;;;;5053314;28;20386;-68
2023/03/30 05:39:35;;;;;;;10.68;2.50;;;14.20;1.00;;;;;;5051847;28;20883;-67
2023/03/30 05:42:01;;;;;;;9.67;2.80;;;14.20;1.00;;;;;;5052823;28;20414;-66
2023/03/30 05:44:27;;;;;;;12.10;2.58;;;14.20;99.90;;;;;;5051944;28;20858;-67
2023/03/30 05:46:52;;;;;;;11.88;2.50;;;14.30;1.00;;;;;;5052984;28;20393;-66
2023/03/30 05:49:18;;;;;;;13.20;2.80;;;14.40;1.00;;;;;;5051882;28;20385;-66
2023/03/30 05:51:43;;;;;;;13.50;2.40;;;14.30;1.00;;;;;;5052311;28;20401;-66
2023/03/30 05:54:13;;;;;;;13.73;2.63;;;14.40;99.90;;;;;;5052438;28;20388;-65
2023/03/30 05:56:41;;;;;;;7.85;2.05;;;14.40;99.90;;;;;;5052505;28;20382;-65
2023/03/30 05:59:08;;;;;;;11.17;2.40;;;14.40;55.50;;;;;;5052383;28;20878;-66
2023/03/30 06:01:35;;;;;;;14.10;3.47;;;14.40;99.90;;;;;;5051688;28;20407;-66
2023/03/30 06:04:00;;;;;;;11.43;2.20;;;14.40;99.90;;;;;;5049418;28;20432;-66
2023/03/30 06:06:26;;;;;;;19.73;3.23;;;14.50;1.00;;;;;;5047616;28;20831;-66
2023/03/30 06:08:52;;;;;;;11.02;2.40;;;14.40;23.00;;;;;;5052273;28;20435;-66
2023/03/30 06:11:18;;;;;;;15.32;3.03;;;14.30;99.90;;;;;;5051625;28;20385;-67
2023/03/30 06:13:44;;;;;;;13.05;3.30;;;14.40;99.90;;;;;;5052434;28;20900;-66
2023/03/30 06:16:09;;;;;;;11.07;3.15;;;14.40;1.00;;;;;;5052014;28;20386;-66
2023/03/30 06:18:35;;;;;;;16.20;2.55;;;14.20;1.00;;;;;;5051056;28;21189;-64
2023/03/30 06:21:05;;;;;;;10.77;2.70;;;14.00;99.90;;;;;;5051507;28;20520;-69
2023/03/30 06:23:30;;;;;;;7.97;2.23;;;13.90;1.00;;;;;;5051559;28;20484;-67
2023/03/30 06:25:56;;;;;;;14.00;2.95;;;13.80;1.00;;;;;;5052300;28;20499;-67
2023/03/30 06:28:22;;;;;;;13.50;3.17;;;13.70;5.30;;;;;;5050697;28;20440;-67
2023/03/30 06:30:48;;;;;;;10.52;2.47;;;13.50;85.20;;;;;;5051944;28;20385;-67
2023/03/30 06:33:15;;;;;;;12.93;2.58;;;13.60;99.90;;;;;;5050556;28;20374;-60
2023/03/30 06:35:49;;;;;;;8.25;2.70;;;13.60;6.50;;;;;;5051676;28;20382;-67
2023/03/30 06:38:15;;;;;;;8.10;2.00;;;13.50;99.90;;;;;;5051204;28;20735;-60
2023/03/30 06:40:41;;;;;;;11.87;2.53;;;13.60;76.00;;;;;;5051634;28;20398;-67
2023/03/30 06:43:12;;;;;;;14.70;2.80;;;13.70;1.00;;;;;;5051649;28;20374;-66
2023/03/30 06:45:37;;;;;;;13.95;2.60;;;13.70;1.00;;;;;;5050725;28;20470;-66
2023/03/30 06:48:03;;;;;;;13.73;2.60;;;13.70;1.00;;;;;;5051708;28;20381;-67
2023/03/30 06:50:29;;;;;;;9.00;2.10;;;13.80;1.00;;;;;;5050431;28;20950;-66
2023/03/30 06:52:54;;;;;;;6.10;1.95;;;13.70;99.90;;;;;;5051520;28;20384;-66
2023/03/30 06:55:20;;;;;;;13.95;2.97;;;13.70;1.00;;;;;;5050544;28;20505;-66
2023/03/30 06:57:46;;;;;;;13.20;3.00;;;13.70;1.00;;;;;;5050864;28;20398;-64
2023/03/30 07:00:12;;;;;;;8.85;2.47;;;13.70;1.00;;;;;;5051804;28;20382;-65
2023/03/30 07:02:43;;;;;;;11.48;3.15;;;13.40;1.00;;;;;;5051600;28;20386;-67
2023/03/30 07:05:09;;;;;;;18.23;2.95;;;13.70;1.00;;;;;;5050821;28;20409;-67
2023/03/30 07:07:35;;;;;;;11.32;2.10;;;13.80;1.00;;;;;;5032898;28;20486;-67
2023/03/30 07:10:08;;;;;;;7.63;2.05;;;13.70;1.00;;;;;;5033454;28;20730;-68
2023/03/30 07:12:35;;;;;;;15.80;3.10;;;13.60;1.00;;;;;;5049971;28;20438;-69
2023/03/30 07:15:00;;;;;;;18.55;2.83;;;13.50;1.00;;;;;;5051101;28;20431;-68
2023/03/30 07:17:26;;;;;;;15.45;3.50;;;13.40;1.00;;;;;;5050308;28;20393;-68
2023/03/30 07:19:53;;;;;;;9.07;3.13;;;13.30;1.00;;;;;;5050997;28;20385;-66
2023/03/30 07:22:18;;;;;;;16.70;4.00;;;13.20;1.00;;;;;;5050069;28;20846;-65
2023/03/30 07:24:44;;;;;;;10.20;3.08;;;13.20;1.00;;;;;;5050696;28;20497;-65
2023/03/30 07:27:10;;;;;;;17.07;2.87;;;13.10;1.00;;;;;;5050285;28;20388;-67
2023/03/30 07:29:35;;;;;;;8.05;2.72;;;13.10;1.00;;;;;;5050206;28;20405;-67
2023/03/30 07:32:02;;;;;;;9.63;3.13;;;13.00;1.00;;;;;;5050886;28;20714;-67
2023/03/30 07:34:28;;;;;;;14.48;2.83;;;13.10;1.00;;;;;;5049998;28;20385;-67
2023/03/30 07:36:54;;;;;;;12.15;3.30;;;12.90;1.00;;;;;;5050549;28;20380;-67
2023/03/30 07:39:20;;;;;;;14.98;4.18;;;13.00;1.00;;;;;;5049882;28;20389;-67
2023/03/30 07:41:46;;;;;;;11.95;3.03;;;13.10;1.00;;;;;;5050485;28;20386;-67
2023/03/30 07:44:11;;;;;;;12.90;3.00;;;13.10;1.00;;;;;;5049967;28;20370;-67
2023/03/30 07:46:37;;;;;;;12.32;3.15;;;13.00;1.00;;;;;;5050067;28;20409;-67
2023/03/30 07:49:03;;;;;;;11.40;3.47;;;13.00;1.00;;;;;;5050380;28;20739;-67
2023/03/30 07:51:28;;;;;;;14.30;3.35;;;13.00;1.00;;;;;;5049664;28;20385;-68
2023/03/30 07:53:54;;;;;;;10.37;2.93;;;13.20;1.00;;;;;;5050408;28;20417;-67
2023/03/30 07:56:20;;;;;;;10.20;2.90;;;13.30;1.00;;;;;;5049498;28;20400;-67
2023/03/30 07:58:46;;;;;;;10.67;2.90;;;13.40;1.00;;;;;;5051216;28;20397;-67
2023/03/30 08:01:12;;;;;;;9.75;3.03;;;13.30;1.00;;;;;;5050408;28;20397;-67
2023/03/30 08:03:38;;;;;;;10.18;3.42;;;13.40;1.00;;;;;;5049199;28;20581;-67
2023/03/30 08:06:05;;;;;;;15.55;3.10;;;13.40;1.00;;;;;;5050003;28;20919;-67
2023/03/30 08:08:32;;;;;;;12.02;3.03;;;13.30;1.00;;;;;;5049282;28;20413;-67
2023/03/30 08:10:58;;;;;;;10.90;3.40;;;13.30;1.00;;;;;;5050483;28;20377;-68
2023/03/30 08:13:23;;;;;;;9.50;2.67;;;13.20;1.00;;;;;;5049267;28;20404;-67
2023/03/30 08:15:51;;;;;;;10.18;3.30;;;13.10;1.00;;;;;;5049370;28;20407;-67
2023/03/30 08:18:17;;;;;;;12.07;3.80;;;13.10;1.00;;;;;;5049114;28;20381;-62
2023/03/30 08:20:43;;;;;;;13.45;3.60;;;12.80;1.00;;;;;;5049865;28;20736;-67
2023/03/30 08:23:10;;;;;;;12.57;2.53;;;13.20;1.00;;;;;;5049390;28;20397;-67
2023/03/30 08:25:37;;;;;;;10.48;2.90;;;13.10;1.00;;;;;;5049220;28;20420;-67
2023/03/30 08:28:04;;;;;;;9.02;2.80;;;13.10;1.00;;;;;;5049879;28;20389;-66
2023/03/30 08:30:30;;;;;;;10.35;3.03;;;13.10;1.00;;;;;;5049213;28;20405;-67
2023/03/30 08:32:57;;;;;;;8.65;2.40;;;13.00;1.00;;;;;;5031783;28;20389;-66
2023/03/30 08:35:22;;;;;;;11.88;2.60;;;13.10;1.00;;;;;;5048977;28;20386;-67
2023/03/30 08:37:48;;;;;;;10.77;2.60;;;13.00;1.00;;;;;;5049350;28;20859;-66
2023/03/30 08:40:15;;;;;;;9.40;2.40;;;13.00;1.00;;;;;;5049442;28;20871;-63
2023/03/30 08:42:54;;;;;;;8.60;2.47;;;13.10;1.00;;;;;;5048926;28;20881;-66
2023/03/30 08:45:20;;;;;;;10.85;2.25;;;13.20;1.00;;;;;;5048851;28;20409;-66
2023/03/30 08:47:49;;;;;;;10.52;2.70;;;13.20;1.00;;;;;;5049626;28;20947;-67
2023/03/30 08:50:29;;;;;;;10.00;2.50;;;13.30;1.00;;;;;;5049290;28;20390;-63
2023/03/30 08:52:55;;;;;;;9.60;2.25;;;14.50;1.00;;;;;;5049400;28;20374;-66
2023/03/30 08:55:27;;;;;;;8.00;2.03;;;13.40;1.00;;;;;;5049063;28;20435;-66
2023/03/30 08:58:08;;;;;;;8.55;2.20;;;13.50;1.00;;;;;;5053515;28;20397;-67
2023/03/30 09:00:44;;;;;;;5.80;2.17;;;13.50;1.00;;;;;;5052968;28;20957;-66
2023/03/30 09:03:42;;;;;;;8.10;2.00;;;13.50;1.00;;;;;;5053641;28;20366;-66
2023/03/30 09:06:26;;;;;;;9.27;2.58;;;13.40;1.00;;;;;;4964209;28;20425;-66
2023/03/30 09:08:52;;;;;;;10.90;3.38;;;13.40;1.00;;;;;;5053501;28;20381;-66
2023/03/30 09:11:38;;;;;;;10.40;4.03;;;13.30;1.00;;;;;;5052467;28;20859;-65
2023/03/30 09:14:06;;;;;;;10.63;3.47;;;13.50;1.00;;;;;;5053028;28;20389;-66
2023/03/30 09:16:44;;;;;;;7.30;2.78;;;13.50;1.00;;;;;;5052731;28;20484;-65
2023/03/30 09:19:19;;;;;;;8.35;2.90;;;13.50;1.00;;;;;;5053364;28;20424;-66
2023/03/30 09:21:47;;;;;;;9.20;2.80;;;13.70;1.00;;;;;;5053121;28;20476;-66
2023/03/30 09:24:23;;;;;;;10.70;3.08;;;13.90;1.00;;;;;;5052725;28;20415;-65
2023/03/30 09:26:59;;;;;;;8.63;3.27;;;13.90;1.00;;;;;;5052885;28;20420;-65
2023/03/30 09:29:30;;;;;;;8.05;3.25;;;14.10;1.00;;;;;;5034071;28;20446;-65
2023/03/30 09:32:05;;;;;;;10.48;2.80;;;14.20;1.00;;;;;;5052896;28;20416;-65
2023/03/30 09:34:57;;;;;;;8.50;2.60;;;14.30;1.00;;;;;;5052209;28;20382;-64
2023/03/30 09:37:23;;;;;;;9.60;2.40;;;14.40;99.90;;;;;;5051834;28;20385;-63
2023/03/30 09:39:50;;;;;;;7.40;2.60;;;14.40;99.90;;;;;;5052862;28;20388;-63
2023/03/30 09:42:16;;;;;;;7.85;2.65;;;14.60;99.90;;;;;;5052834;28;20475;-61
2023/03/30 09:44:47;;;;;;;8.73;2.50;;;14.60;99.90;;;;;;5052147;28;20860;-63
2023/03/30 09:47:49;;;;;;;9.55;3.30;;;14.50;1.00;;;;;;5052671;28;20460;-63
2023/03/30 09:50:25;;;;;;;9.40;2.10;;;14.60;1.00;;;;;;5013591;28;20927;-61
2023/03/30 09:53:03;;;;;;;6.70;1.70;;;14.60;99.90;;;;;;5049148;28;20386;-63
2023/03/30 09:55:32;;;;;;;6.57;2.10;;;14.60;99.90;;;;;;5051377;28;20404;-63
2023/03/30 09:58:11;;;;;;;7.30;3.80;;;14.20;1.00;;;;;;5051916;28;20889;-63
2023/03/30 10:00:38;;;;;;;6.90;2.00;;;14.20;1.00;;;;;;5051556;28;20384;-62
2023/03/30 10:03:17;;;;;;;6.00;2.90;;;14.20;1.00;;;;;;5052341;28;20479;-63
2023/03/30 10:05:42;;;;;;;6.82;1.67;;;14.00;1.00;;;;;;5051800;28;20409;-63
2023/03/30 10:08:21;;;;;;;7.75;2.63;;;13.90;99.90;;;;;;5050905;28;20393;-62
2023/03/30 10:10:53;;;;;;;7.75;2.40;;;14.00;99.90;;;;;;5034114;28;20388;-63
2023/03/30 10:13:25;;;;;;;6.88;2.20;;;14.00;99.90;;;;;;5051249;28;20381;-63
2023/03/30 10:15:53;;;;;;;6.80;2.00;;;14.20;1.00;;;;;;5052011;28;20430;-62
2023/03/30 10:18:26;;;;;;;7.33;2.13;;;14.00;13.80;;;;;;5051452;28;20408;-61
2023/03/30 10:21:00;;;;;;;7.57;2.13;;;14.00;1.00;;;;;;5051960;28;20393;-63
2023/03/30 10:23:32;;;;;;;8.02;1.70;;;14.20;1.00;;;;;;5051584;28;20819;-63
2023/03/30 10:26:02;;;;;;;7.10;2.30;;;13.80;99.90;;;;;;5051632;28;20556;-63
2023/03/30 10:28:32;;;;;;;6.70;2.20;;;13.90;99.90;;;;;;5050944;28;20439;-64
2023/03/30 10:31:01;;;;;;;7.15;2.00;;;14.00;99.90;;;;;;5052151;28;20383;-64
2023/03/30 10:33:29;;;;;;;7.40;2.20;;;14.00;99.90;;;;;;5051130;28;20401;-66
2023/03/30 10:35:59;;;;;;;5.85;1.92;;;14.10;99.90;;;;;;5051260;28;20782;-64
2023/03/30 10:38:32;;;;;;;6.30;2.10;;;14.20;99.90;;;;;;5050955;28;20765;-64
2023/03/30 10:41:08;;;;;;;9.68;2.25;;;14.30;99.90;;;;;;5051854;28;20499;-66
2023/03/30 10:43:35;;;;;;;7.53;2.25;;;14.50;46.40;;;;;;5050916;28;20440;-63
2023/03/30 10:46:16;;;;;;;8.45;2.03;;;14.90;99.90;;;;;;5051366;28;20463;-63
2023/03/30 10:49:09;;;;;;;7.28;2.00;;;15.00;29.20;;;;;;5050680;28;20723;-63
2023/03/30 10:52:12;;;;;;;8.20;2.30;;;15.10;1.00;;;;;;5050815;28;20396;-63
2023/03/30 10:54:48;;;;;;;9.80;2.60;;;15.20;99.90;;;;;;5050521;28;20474;-63
2023/03/30 10:57:20;;;;;;;6.00;2.17;;;15.30;9.70;;;;;;5050979;28;20432;-63
2023/03/30 11:00:14;;;;;;;8.40;2.28;;;15.20;1.80;;;;;;5051132;28;20397;-63
2023/03/30 11:02:50;;;;;;;6.65;2.38;;;15.30;1.90;;;;;;5050503;28;20392;-63
2023/03/30 11:05:30;;;;;;;6.85;2.22;;;15.20;1.00;;;;;;5051388;28;20496;-63
2023/03/30 11:08:10;;;;;;;9.20;2.20;;;15.20;1.00;;;;;;5050773;28;20401;-63
2023/03/30 11:10:46;;;;;;;6.20;2.17;;;15.90;1.00;;;;;;5050343;28;20377;-63
2023/03/30 11:13:16;;;;;;;9.77;2.50;;;16.50;69.10;;;;;;5050378;28;20472;-62
2023/03/30 11:15:58;;;;;;;10.40;3.00;;;16.90;99.90;;;;;;5060155;28;20450;-62
2023/03/30 11:18:50;;;;;;;8.55;2.30;;;17.20;1.00;;;;;;5053369;28;20524;-64
2023/03/30 11:21:39;;;;;;;6.70;2.38;;;16.90;99.90;;;;;;5070246;28;20376;-62
2023/03/30 11:24:20;;;;;;;5.70;2.00;;;16.80;99.90;;;;;;5059062;28;20425;-63
2023/03/30 11:26:55;;;;;;;7.53;2.10;;;16.70;99.90;;;;;;5061046;28;20437;-64
2023/03/30 11:29:32;;;;;;;7.45;1.70;;;16.50;99.90;;;;;;5057114;28;20417;-64
2023/03/30 11:32:00;;;;;;;6.10;1.60;;;16.20;99.90;;;;;;5054622;28;20401;-65
2023/03/30 11:34:44;;;;;;;8.60;2.07;;;15.90;99.90;;;;;;5051002;28;20400;-64
2023/03/30 11:37:20;;;;;;;7.10;1.65;;;15.90;99.90;;;;;;5053675;28;20421;-64
2023/03/30 11:40:23;;;;;;;6.68;1.77;;;16.00;99.90;;;;;;5064001;28;20432;-66
2023/03/30 11:42:49;;;;;;;7.32;1.90;;;15.90;99.90;;;;;;5036551;28;20409;-65
2023/03/30 11:45:52;;;;;;;5.55;1.60;;;15.90;99.90;;;;;;5056262;28;20407;-66
2023/03/30 11:48:27;;;;;;;8.43;2.08;;;15.80;99.90;;;;;;5050600;28;20385;-63
2023/03/30 11:51:14;;;;;;;8.00;2.03;;;15.80;99.90;;;;;;5053745;28;20400;-62
2023/03/30 11:54:01;;;;;;;7.05;2.30;;;16.00;99.90;;;;;;5050310;28;20463;-65
2023/03/30 11:56:34;;;;;;;6.20;2.10;;;16.40;99.90;;;;;;5049264;28;20393;-63
2023/03/30 11:59:09;;;;;;;8.23;2.30;;;16.60;99.90;;;;;;5049362;28;20401;-62
2023/03/30 12:01:53;;;;;;;6.30;2.00;;;16.70;99.90;;;;;;5049358;28;20548;-63
2023/03/30 12:04:29;;;;;;;8.98;2.28;;;17.00;99.90;;;;;;5049519;28;20468;-62
2023/03/30 12:07:00;;;;;;;6.43;1.63;;;17.10;99.90;;;;;;5045733;28;20494;-63
2023/03/30 12:09:37;;;;;;;8.02;2.10;;;17.00;99.90;;;;;;5048814;28;20381;-64
2023/03/30 12:12:17;;;;;;;7.63;1.60;;;16.80;99.90;;;;;;5053719;28;20472;-64
2023/03/30 12:14:56;;;;;;;9.25;2.35;;;16.50;99.90;;;;;;5044487;28;20386;-63
2023/03/30 12:17:29;;;;;;;5.60;2.00;;;16.70;99.90;;;;;;5048923;28;20390;-62
2023/03/30 12:20:26;;;;;;;8.18;2.20;;;16.70;99.90;;;;;;5049322;28;20389;-63
2023/03/30 12:23:17;;;;;;;6.65;1.70;;;16.90;99.90;;;;;;5052248;28;20486;-62
2023/03/30 12:26:07;;;;;;;7.10;2.30;;;16.70;99.90;;;;;;5048753;28;21159;-62
2023/03/30 12:28:53;;;;;;;8.55;2.30;;;17.10;73.80;;;;;;5047228;28;20874;-63
2023/03/30 12:31:20;;;;;;;5.75;1.60;;;17.40;51.00;;;;;;5034642;28;20437;-62
2023/03/30 12:34:04;;;;;;;7.50;2.00;;;17.30;19.90;;;;;;5049059;28;20777;-64
2023/03/30 12:36:36;;;;;;;6.95;1.90;;;17.30;1.00;;;;;;5048792;28;20476;-62
2023/03/30 12:39:07;;;;;;;6.72;1.80;;;17.60;1.00;;;;;;5049519;28;20412;-64
2023/03/30 12:41:47;;;;;;;7.10;2.30;;;17.70;1.00;;;;;;5048511;28;20439;-62
2023/03/30 12:44:54;;;;;;;9.47;2.40;;;17.40;1.00;;;;;;5050837;28;20415;-63
2023/03/30 12:47:22;;;;;;;8.43;2.13;;;17.50;1.00;;;;;;5030784;28;20403;-61
2023/03/30 12:50:11;;;;;;;6.35;2.40;;;17.60;1.00;;;;;;5069252;28;20411;-62
2023/03/30 12:53:03;;;;;;;7.20;2.40;;;17.40;1.00;;;;;;5068410;28;20487;-62
2023/03/30 12:55:46;;;;;;;7.60;1.98;;;17.30;1.00;;;;;;5068609;28;20372;-62
2023/03/30 12:58:58;;;;;;;7.83;1.77;;;17.50;1.00;;;;;;5054817;28;20886;-62
2023/03/30 13:01:33;;;;;;;8.02;1.85;;;17.50;1.00;;;;;;5035080;28;20568;-62
2023/03/30 13:04:00;;;;;;;5.97;1.50;;;17.60;1.00;;;;;;5049030;28;20459;-63
2023/03/30 13:06:55;;;;;;;8.32;1.70;;;17.60;1.00;;;;;;5047876;28;20489;-62
2023/03/30 13:09:24;;;;;;;6.18;1.70;;;17.60;1.00;;;;;;5048450;28;20863;-60
2023/03/30 13:11:52;;;;;;;6.90;2.00;;;17.60;1.00;;;;;;5064303;28;20958;-63